Beta Version
Granted Patents


NoApplication NoTitle Of The InnovationPatent NoGrant DateFirst Page
1 GC 2016-30946 CATALYST AGGLOMERATION REMEDIATION GC0011355 2020/07/04 HTML
2 GC 2016-30995 SYSTEM AND METHOD FOR TAMPER DETECTION USING RFID DEVICES GC0011354 2020/07/02 HTML
3 GC 2016-32566 SUPERCRITICAL WATER UPGRADING PROCESS TO PRODUCE PARAFFINIC STREAM FROM HEAVY OIL GC0011353 2020/07/02 HTML
4 GC 2015-29143 METHOD FOR PRODUCING OXIDE CATALYST, AND METHOD FOR PRODUCING UNSATURATED NITRILE GC0011352 2020/07/02 HTML
5 GC 2015-29119 CONDENSED [1,4] DIAZEPINE COMPOUNDS AS AUTOTAXIN ATX AND LYSOPHOSPHATIDIC ACID LPA PRODUCTION INHIBITORS GC0011351 2020/07/02 HTML
6 GC 2014-27233 NEW 3,4-DIHYDRO-2H-ISOQUINOLINE-1-ONE AND2,3-DIHYDRO-ISOINDOL-1-ONE COMPOUNDS GC0011350 2020/07/02 HTML
7 GC 2012-22297 NEW BICYCLIC DIHYDROQUINOLINE-2-ONE DERIVATIVES GC0011349 2020/07/02 HTML
8 GC 2017-32914 PROCESS TO PREPARE HIGHER ETHYLENE AMINES AND ETHYLENE AMINE DERIVATIVES GC0011348 2020/07/02 HTML
9 GC 2017-32750 PROCESS FOR THE EPOXIDATION OF AN OLEFIN GC0011347 2020/07/02 HTML
10 GC 2017-34136 SHEETLIKE COMPOSITE, IN PARTICULAR FOR THE PRODUCTION OF DIMENSIONALLY STABLE FOODSTUFF CONTAINERS, HAVING A FIRST COLOUR APPLICATION AND A SECOND COLOUR APPLICATION WITH A 2D-CODE GC0011346 2020/07/02 HTML
11 GC 2017-34168 A METHOD OF AND A DEVICE FOR ESTIMATING DOWN HOLE SPEED AND DOWN HOLE TORQUE OF BOREHOLE DRILLING EQUIPMENT WHILE DRILLING, BOREHOLE EQUIPMENT AND A COMPUTER PROGRAM PRODUCT. GC0011345 2020/07/01 HTML
12 GC 2012-22772 DERIVATIVES OF4- PREGENEN-11--21-17-?TRIOL-3-20DIONE DERIVATIVES GC0011344 2020/07/01 HTML
13 GC 2015-30082 MEMBRANE-ELECTRODE ASSEMBLY, REACTOR COMPRISING THE MEMBRANE-ELECTRODE ASSEMBLY AND PROCESS FOR SEPARATING OFF HYDROGEN GC0011343 2020/07/01 HTML
14 GC 2014-37103 HINGED VEHICLE CHASSIS GC0011342 2020/07/01 HTML
15 GC 2016-35415 SUPERCRITICAL REACTOR SYSTEMS AND PROCESSES FOR PETROLEUM UPGRADING GC0011341 2020/06/30 HTML
16 GC 2017-33939 AVOIDING GEOLOGICAL BODIES THAT ARE HAZARDS TO DRILLING OPERATIONS GC0011340 2020/06/30 HTML
17 GC 2015-30567 PHYSICAL RESERVOIR ROCK INTERPRETATION IN A 3D PETROPHYSICAL MODELING ENVIRONMENT GC0011338 2020/06/30 HTML
18 GC 2011-19330 MACROCYCLIC PROLINE DERIVED HCV SERINE PROTEASE INHIBITORS GC0011337 2020/06/30 HTML
19 GC 2017-33642 PROCESSES FOR HIGH SEVERITY FLUID CATALYTIC CRACKING SYSTEMS GC0011336 2020/06/30 HTML
20 GC 2016-32567 SUPERCRITICAL WATER PROCESSES FOR UPGRADING A PETROLEUM-BASED COMPOSITION WHILE DECREASING PLUGGING GC0011335 2020/06/30 HTML
21 GC 2016-32352 A CATALYTIC PROCESS FOR REDUCING CHLORIDE CONTENT OF A HYDROCARBON FEED STREAM GC0011334 2020/06/30 HTML
22 GC 2016-32021 CONVEYOR ROLL ASSEMBLY, TORQUE TRANSMISSION AND SUPPORT MEANS AND PROCESS FOR THE ASSEMBLY OF A CONVEYOR ROLL USED IN A HIGH TEMPERATURE ENVIRONMENT GC0011333 2020/06/30 HTML
23 GC 2017-34143 METHODS FOR PRODUCING HIERARCHICAL MESOPOROUS ZEOLITE BETA GC0011332 2020/06/30 HTML
24 GC 2014-28130 CROSSHEAD-PISTON ROD ASSEMBLY FOR A RECIPROCATING COMPRESSOR GC0011331 2020/06/30 HTML
25 GC 2016-32287 BALANCED VALVE TRIM AND METHOD OF REDUCING STEM FORCES ON A VALVE STEM GC0011330 2020/06/30 HTML
26 GC 2016-31301 TIMELINE VISUALIZATION OF EVENTS FOR MONITORING WELL SITE DRILLING OPERATIONS GC0011329 2020/06/30 HTML
27 GC 2016-32428 METHOD FOR PRODUCING HIGH-QUALITY FEEDSTOCK FOR A STEAM CRACKING PROCESS GC0011328 2020/06/30 HTML
28 GC 2017-33048 COMPOSITION AND METHODS FOR THE SYNTHESIS OF INDOLE RING NUCLEOBASE CONJUGATES GC0011327 2020/06/30 HTML
29 GC 2014-28175 PROPPANTS WITH IMPROVED STRENGTH GC0011326 2020/06/30 HTML
30 GC 2016-31309 MULTIMODAL HIGH DENSITY POLYETHYLENE GC0011325 2020/06/30 HTML
31 GC 2010-15417 STABILIZED BIOCIDAL COMPOSITION GC0011324 2020/06/30 HTML
32 GC 2018-34591 CORRODIBLE DOWNHOLE ARTICLE GC0011323 2020/06/30 HTML
33 GC 2009-13063 DOSING REGIMEN FOR A SELECTIVE S1P1 RECEPTOR AGONIST GC0011322 2020/06/30 HTML
34 GC 2016-32590 PROCESS FOR TREATING PRODUCED WATER FROM AN OIL & GAS FIELD GC0011321 2020/06/30 HTML
35 GC 2016-31669 FLUID DISTRIBUTION IN A FLUIDIZED BED REACTOR GC0011319 2020/06/29 HTML
36 GC 2016-31226 METHOD FOR THE UTILIZATION OF THE INNER ENERGY OF AN AQUIFER FLUID IN A GEOTHERMAL PLANT GC0011318 2020/06/29 HTML
37 GC 2017-33858 IMPREGNATION TOOL FOR IMPREGNATION OF FIBRES WITH REACTICE MATRIX GC0011317 2020/06/29 HTML
38 GC 2015-29647 BENZOXAZINONE AMIDES AS MINERALOCORTICOID RECEPTOR MODULATORS GC0011316 2020/06/29 HTML
39 GC 2015-30651 METHODS AND FERTILIZER COMPOSITIONS FOR TREATING A PLANT AND ‎PLANT GROWTH MEDIUM GC0011315 2020/06/29 HTML
40 GC 2017-34003 GAS ISOTOPE ANALYSIS GC0011314 2020/06/29 HTML
41 GC 2014-26588 METHOD OF FRACTURING WITH LIQUEFIED NATURAL GAS GC0011313 2020/06/29 HTML
42 GC 2016-32609 SUPPORT FEATURES FOR EXTENDABLE ELEMENTS OF A DOWNHOLE TOOL BODY, TOOL BODIES HAVING SUCH SUPPORT FEATURES AND RELATED METHODS GC0011312 2020/06/29 HTML
43 GC 2016-32097 PROCESS FOR PRODUCING LPG FROM A HEAVY HYDROCARBON FEED GC0011311 2020/06/29 HTML
44 GC 2017-33326 ENHANCER OF ZESTE HOMOLOG 2 INHIBITORS GC0011310 2020/06/29 HTML
45 GC 2012-22316 CD27L ANTIGEN BINDING PROTEINS GC0011309 2020/06/29 HTML
46 GC 2017-34105 ROD OR TUBE LIFTING APPARATUS GC0011308 2020/06/29 HTML
47 GC 2017-33924 DISSOLVABLE PROTECTOR SLEEVE GC0011307 2020/06/29 HTML
48 GC 2014-36088 SECURITY BARRIER COMPRISING GABIONS GC0011306 2020/06/28 HTML
49 GC 2014-26892 SECURITY BARRIER COMPRISING GABIONS GC0011305 2020/06/28 HTML
50 GC 2017-33980 HIGH KINETIC ENERGY ABSORPTION WITH LOW BACK FACE DEFORMATION BALLISTIC COMPOSITES GC0011304 2020/06/28 HTML
12345678910...
العدد:

All Rights Reserved